Time;durP1;ratioP1;P1;durP2;ratioP2;P2;SDS_P1;SDS_P2;PMS_P1;PMS_P2;Temp;Humidity;BMP_temperature;BMP_pressure;BME280_temperature;BME280_humidity;BME280_pressure;Samples;Min_cycle;Max_cycle;Signal;HPM_P1;HPM_P2
2020/12/14 00:02:25;;;;;;;6.25;1.38;;;;;;;7.18;100.00;100570.44;4991562;28;20500;-88
2020/12/14 00:04:52;;;;;;;5.93;1.55;;;;;;;7.18;100.00;100569.59;4992081;28;20038;-88
2020/12/14 00:07:19;;;;;;;2.55;1.00;;;;;;;7.21;100.00;100569.28;4991491;28;20386;-88
2020/12/14 00:09:45;;;;;;;5.35;1.23;;;;;;;7.16;100.00;100569.72;4999596;28;20038;-88
2020/12/14 00:12:11;;;;;;;4.63;1.20;;;;;;;7.21;100.00;100561.28;4991774;28;20054;-88
2020/12/14 00:14:37;;;;;;;1.13;0.90;;;;;;;7.17;100.00;100574.06;4992079;28;20491;-88
2020/12/14 00:17:02;;;;;;;4.45;1.23;;;;;;;7.19;100.00;100568.59;4991418;28;20390;-88
2020/12/14 00:19:28;;;;;;;5.82;1.63;;;;;;;7.16;100.00;100564.38;4992054;28;20498;-88
2020/12/14 00:21:54;;;;;;;4.22;1.17;;;;;;;7.23;100.00;100561.97;5023353;28;20428;-88
2020/12/14 00:24:20;;;;;;;4.15;1.23;;;;;;;7.23;100.00;100557.47;4991725;28;20030;-88
2020/12/14 00:26:46;;;;;;;4.80;2.47;;;;;;;7.21;100.00;100563.94;4990717;28;20065;-88
2020/12/14 00:29:11;;;;;;;8.23;1.55;;;;;;;7.17;100.00;100535.88;4991923;28;20030;-88
2020/12/14 00:31:38;;;;;;;2.60;1.20;;;;;;;7.17;100.00;100543.88;4991341;28;20690;-88
2020/12/14 00:34:03;;;;;;;2.53;1.30;;;;;;;7.17;100.00;100541.22;4991781;28;20117;-88
2020/12/14 00:36:29;;;;;;;6.82;2.13;;;;;;;7.20;100.00;100539.09;4989204;28;20030;-88
2020/12/14 00:38:54;;;;;;;5.97;1.42;;;;;;;7.24;100.00;100521.78;4991396;28;20042;-88
2020/12/14 00:41:21;;;;;;;4.68;1.23;;;;;;;7.24;100.00;100535.13;4991441;28;20041;-88
2020/12/14 00:43:47;;;;;;;5.15;1.65;;;;;;;7.23;100.00;100535.31;4991439;28;20038;-88
2020/12/14 00:46:15;;;;;;;5.10;1.45;;;;;;;7.23;100.00;100551.31;4991163;28;20299;-89
2020/12/14 00:48:41;;;;;;;6.60;1.50;;;;;;;7.32;100.00;100547.69;5006481;28;20034;-88
2020/12/14 00:51:06;;;;;;;3.15;1.35;;;;;;;7.24;100.00;100535.13;4991545;28;20101;-88
2020/12/14 00:53:33;;;;;;;6.80;1.67;;;;;;;7.25;100.00;100547.47;5006539;28;20026;-88
2020/12/14 00:56:01;;;;;;;4.45;1.98;;;;;;;7.33;100.00;100540.53;4990266;28;20034;-88
2020/12/14 00:58:27;;;;;;;4.78;1.65;;;;;;;7.29;100.00;100533.84;4990759;28;20026;-88
2020/12/14 01:00:53;;;;;;;3.45;1.40;;;;;;;7.33;100.00;100529.84;4991098;28;20042;-88
2020/12/14 01:03:19;;;;;;;6.95;1.50;;;;;;;7.29;100.00;100528.50;4991749;28;20045;-88
2020/12/14 01:05:44;;;;;;;4.32;1.48;;;;;;;7.31;100.00;100524.69;5006377;28;20038;-89
2020/12/14 01:08:10;;;;;;;5.93;1.55;;;;;;;7.32;100.00;100515.69;4990557;28;20038;-89
2020/12/14 01:10:36;;;;;;;5.30;1.75;;;;;;;7.32;100.00;100518.34;4984769;28;20037;-89
2020/12/14 01:13:01;;;;;;;3.72;1.30;;;;;;;7.31;100.00;100513.16;4991433;28;20416;-89
2020/12/14 01:15:27;;;;;;;2.65;1.75;;;;;;;7.32;100.00;100513.00;4991195;28;20031;-88
2020/12/14 01:17:53;;;;;;;9.98;1.70;;;;;;;7.32;100.00;100514.84;4990841;28;20037;-88
2020/12/14 01:20:18;;;;;;;4.55;1.77;;;;;;;7.33;100.00;100511.19;4989682;28;20588;-88
2020/12/14 01:22:44;;;;;;;6.22;1.60;;;;;;;7.34;100.00;100511.03;4994218;28;20045;-89
2020/12/14 01:25:09;;;;;;;5.93;1.60;;;;;;;7.35;100.00;100510.03;4995103;28;20417;-88
2020/12/14 01:27:35;;;;;;;7.38;1.88;;;;;;;7.40;100.00;100505.09;4994520;28;20437;-88
2020/12/14 01:30:00;;;;;;;6.07;1.67;;;;;;;7.38;100.00;100500.88;4995336;28;20405;-88
2020/12/14 01:32:26;;;;;;;5.30;1.60;;;;;;;7.35;100.00;100499.38;4994673;28;20371;-88
2020/12/14 01:34:52;;;;;;;6.32;2.03;;;;;;;7.46;100.00;100514.31;4994488;28;20088;-88
2020/12/14 01:37:17;;;;;;;4.57;1.85;;;;;;;7.40;100.00;100502.41;4993280;28;20084;-88
2020/12/14 01:39:43;;;;;;;6.38;1.80;;;;;;;7.37;100.00;100512.56;4993611;28;20117;-88
2020/12/14 01:42:08;;;;;;;6.00;2.15;;;;;;;7.34;100.00;100515.53;4994734;28;20026;-88
2020/12/14 01:44:34;;;;;;;6.63;1.70;;;;;;;7.37;100.00;100515.22;5009981;28;20362;-88
2020/12/14 01:47:02;;;;;;;7.43;2.10;;;;;;;7.38;100.00;100517.75;5009474;28;20126;-89
2020/12/14 01:49:29;;;;;;;8.73;1.98;;;;;;;7.39;100.00;100521.25;4982069;28;20088;-88
2020/12/14 01:51:55;;;;;;;3.83;1.80;;;;;;;7.38;100.00;100511.56;4994776;28;20033;-89
2020/12/14 01:54:29;;;;;;;4.25;1.83;;;;;;;7.41;100.00;100508.59;4994557;28;20464;-89
2020/12/14 01:56:55;;;;;;;6.25;2.00;;;;;;;7.55;100.00;100486.69;4994078;28;20113;-88
2020/12/14 01:59:22;;;;;;;3.22;1.88;;;;;;;7.51;100.00;100502.16;4994504;28;20117;-88
2020/12/14 02:01:48;;;;;;;5.30;1.92;;;;;;;7.48;100.00;100501.63;5009136;28;20042;-88
2020/12/14 02:04:13;;;;;;;8.43;2.53;;;;;;;7.48;100.00;100505.16;4994655;28;20080;-88
2020/12/14 02:06:39;;;;;;;6.18;2.00;;;;;;;7.48;100.00;100490.94;4993775;28;20026;-89
2020/12/14 02:09:04;;;;;;;2.70;1.60;;;;;;;7.44;100.00;100494.94;4992566;28;20049;-88
2020/12/14 02:11:30;;;;;;;4.32;1.70;;;;;;;7.43;100.00;100494.13;5004120;28;20030;-89
2020/12/14 02:13:56;;;;;;;7.10;1.95;;;;;;;7.43;100.00;100495.91;4994582;28;20038;-88
2020/12/14 02:16:22;;;;;;;4.13;2.00;;;;;;;7.46;100.00;100492.94;4993659;28;20034;-88
2020/12/14 02:18:47;;;;;;;5.70;1.92;;;;;;;7.46;100.00;100498.28;4994140;28;20034;-89
2020/12/14 02:21:16;;;;;;;5.70;1.80;;;;;;;7.50;100.00;100499.66;4994225;28;20038;-88
2020/12/14 02:23:43;;;;;;;8.13;2.95;;;;;;;7.59;100.00;100496.06;4994813;28;20069;-86
2020/12/14 02:26:09;;;;;;;6.75;1.80;;;;;;;7.59;100.00;100495.22;4993419;28;20161;-86
2020/12/14 02:28:34;;;;;;;5.38;2.10;;;;;;;7.57;100.00;100500.72;5009284;28;20121;-88
2020/12/14 02:31:00;;;;;;;5.93;1.80;;;;;;;7.61;100.00;100495.91;4992425;28;20379;-88
2020/12/14 02:33:25;;;;;;;4.78;1.67;;;;;;;7.61;100.00;100499.41;4986944;28;20415;-87
2020/12/14 02:35:51;;;;;;;9.57;2.00;;;;;;;7.63;100.00;100502.78;4988727;28;20041;-87
2020/12/14 02:38:17;;;;;;;10.25;3.58;;;;;;;7.62;100.00;100489.56;4993501;28;20293;-87
2020/12/14 02:40:53;;;;;;;6.85;2.20;;;;;;;7.63;100.00;100500.09;4993810;28;20117;-87
2020/12/14 02:43:19;;;;;;;10.90;2.08;;;;;;;7.53;100.00;100494.88;4992590;28;20134;-87
2020/12/14 02:45:45;;;;;;;6.35;1.88;;;;;;;7.57;100.00;100497.19;4993122;28;20517;-87
2020/12/14 02:48:10;;;;;;;6.65;2.00;;;;;;;7.54;100.00;100501.03;4991961;28;20034;-87
2020/12/14 02:50:39;;;;;;;5.13;1.63;;;;;;;7.49;100.00;100496.16;4993906;28;20030;-87
2020/12/14 02:53:07;;;;;;;4.82;1.65;;;;;;;7.52;100.00;100490.50;4993763;28;20172;-87
2020/12/14 02:55:33;;;;;;;6.80;2.00;;;;;;;7.59;100.00;100490.72;4991885;28;20497;-87
2020/12/14 02:57:59;;;;;;;7.03;1.85;;;;;;;7.55;100.00;100481.34;4992936;28;20300;-87
2020/12/14 03:00:25;;;;;;;6.85;2.00;;;;;;;7.55;100.00;100484.03;5008464;28;20038;-87
2020/12/14 03:02:51;;;;;;;5.03;1.88;;;;;;;7.62;100.00;100477.06;4993275;28;20050;-87
2020/12/14 03:05:17;;;;;;;7.45;1.83;;;;;;;7.55;100.00;100483.19;4993187;28;20113;-87
2020/12/14 03:07:42;;;;;;;5.75;1.65;;;;;;;7.57;100.00;100478.50;4992937;28;20401;-87
2020/12/14 03:10:12;;;;;;;5.40;1.75;;;;;;;7.58;100.00;100469.50;4986487;28;20044;-87
2020/12/14 03:12:37;;;;;;;6.13;1.85;;;;;;;7.58;100.00;100466.84;4992978;28;20392;-87
2020/12/14 03:15:03;;;;;;;6.43;1.67;;;;;;;7.55;100.00;100469.84;4992571;28;20074;-87
2020/12/14 03:17:29;;;;;;;4.10;1.80;;;;;;;7.53;100.00;100467.34;4991238;28;20109;-87
2020/12/14 03:19:55;;;;;;;8.38;2.35;;;;;;;7.51;100.00;100474.63;4991425;28;20447;-87
2020/12/14 03:22:20;;;;;;;4.75;1.85;;;;;;;7.55;100.00;100480.50;4992853;28;20034;-87
2020/12/14 03:24:46;;;;;;;8.02;2.30;;;;;;;7.58;100.00;100482.84;4991071;28;20033;-87
2020/12/14 03:27:12;;;;;;;5.72;1.90;;;;;;;7.62;100.00;100479.72;4991040;28;20485;-87
2020/12/14 03:29:38;;;;;;;6.18;1.58;;;;;;;7.56;100.00;100482.19;4992554;28;20034;-87
2020/12/14 03:32:04;;;;;;;4.43;1.80;;;;;;;7.62;100.00;100481.56;4992843;28;20512;-87
2020/12/14 03:34:29;;;;;;;5.63;1.85;;;;;;;7.61;100.00;100469.22;4992817;28;20041;-87
2020/12/14 03:36:57;;;;;;;5.03;2.40;;;;;;;7.60;100.00;100475.53;4990413;28;20128;-87
2020/12/14 03:39:22;;;;;;;7.68;2.17;;;;;;;7.62;100.00;100477.06;4993042;28;20038;-87
2020/12/14 03:41:50;;;;;;;4.57;2.28;;;;;;;7.63;100.00;100475.22;4992307;28;20034;-87
2020/12/14 03:44:16;;;;;;;3.78;1.75;;;;;;;7.61;100.00;100475.38;4992214;28;20066;-87
2020/12/14 03:46:41;;;;;;;7.53;2.05;;;;;;;7.56;100.00;100482.19;4990652;28;20457;-87
2020/12/14 03:49:09;;;;;;;4.43;2.13;;;;;;;7.57;100.00;100473.19;4991156;28;20030;-87
2020/12/14 03:51:35;;;;;;;7.32;2.22;;;;;;;7.56;100.00;100476.84;4975399;28;20445;-87
2020/12/14 03:54:00;;;;;;;5.07;2.08;;;;;;;7.53;100.00;100465.50;4992690;28;20496;-89
2020/12/14 03:56:26;;;;;;;6.90;2.75;;;;;;;7.52;100.00;100471.81;4974271;28;20498;-89
2020/12/14 03:58:52;;;;;;;4.90;2.70;;;;;;;7.50;100.00;100476.47;4992081;28;20073;-90
2020/12/14 04:01:20;;;;;;;5.88;2.90;;;;;;;7.55;100.00;100470.66;4975164;28;20027;-90
2020/12/14 04:03:46;;;;;;;3.92;2.28;;;;;;;7.59;100.00;100471.22;5019567;28;20104;-90
2020/12/14 04:06:17;;;;;;;6.45;2.95;;;;;;;7.51;100.00;100471.97;4983872;28;20038;-89
2020/12/14 04:08:43;;;;;;;10.65;2.80;;;;;;;7.48;100.00;100470.47;4990967;28;20098;-90
2020/12/14 04:11:10;;;;;;;7.20;2.97;;;;;;;7.50;100.00;100468.47;4985537;28;20447;-90
2020/12/14 04:13:36;;;;;;;8.38;2.65;;;;;;;7.46;100.00;100459.09;4991122;28;20056;-91
2020/12/14 04:16:01;;;;;;;7.03;3.15;;;;;;;7.45;100.00;100462.75;4975203;28;20077;-91
2020/12/14 04:18:27;;;;;;;8.50;2.72;;;;;;;7.48;100.00;100465.13;4990599;28;20030;-91
2020/12/14 04:20:52;;;;;;;5.20;2.60;;;;;;;7.48;100.00;100462.47;4975153;28;20037;-90
2020/12/14 04:23:18;;;;;;;8.13;2.97;;;;;;;7.48;100.00;100466.94;4990774;28;20030;-91
2020/12/14 04:25:43;;;;;;;5.68;2.92;;;;;;;7.50;100.00;100457.78;4991826;28;20030;-90
2020/12/14 04:28:09;;;;;;;7.85;3.17;;;;;;;7.47;100.00;100458.09;4978659;28;20560;-91
2020/12/14 04:30:34;;;;;;;8.20;3.30;;;;;;;7.49;100.00;100460.63;5023610;28;20026;-91
2020/12/14 04:33:00;;;;;;;6.32;2.80;;;;;;;7.50;100.00;100460.47;4992108;28;20035;-91
2020/12/14 04:35:25;;;;;;;8.30;2.40;;;;;;;7.63;100.00;100454.72;5006793;28;20501;-90
2020/12/14 04:37:52;;;;;;;7.88;2.85;;;;;;;7.53;100.00;100449.47;4990271;28;20070;-91
2020/12/14 04:40:18;;;;;;;14.35;3.00;;;;;;;7.53;100.00;100452.16;4992168;28;20038;-91
2020/12/14 04:42:44;;;;;;;10.30;3.50;;;;;;;7.56;100.00;100450.16;4991938;28;20458;-90
2020/12/14 04:45:11;;;;;;;5.78;2.67;;;;;;;7.62;100.00;100457.53;4992142;28;20042;-90
2020/12/14 04:47:38;;;;;;;9.02;2.75;;;;;;;7.64;100.00;100448.38;4991302;28;20038;-90
2020/12/14 04:50:04;;;;;;;7.18;2.67;;;;;;;7.61;100.00;100448.69;4990758;28;20482;-91
2020/12/14 04:52:33;;;;;;;10.70;3.15;;;;;;;7.64;100.00;100443.03;5007011;28;20026;-90
2020/12/14 04:54:59;;;;;;;5.20;2.55;;;;;;;7.67;100.00;100448.06;4990388;28;20061;-91
2020/12/14 04:57:26;;;;;;;7.30;2.72;;;;;;;7.70;100.00;100449.59;4990432;28;20030;-91
2020/12/14 04:59:52;;;;;;;7.97;2.85;;;;;;;7.76;100.00;100451.63;4990432;28;20045;-91
2020/12/14 05:02:18;;;;;;;7.00;2.75;;;;;;;7.75;100.00;100449.94;4990549;28;20433;-91
2020/12/14 05:04:44;;;;;;;8.60;2.47;;;;;;;7.75;100.00;100449.94;4992029;28;20041;-90
2020/12/14 05:07:12;;;;;;;2.60;2.00;;;;;;;7.76;100.00;100459.63;4991288;28;20062;-91
2020/12/14 05:09:40;;;;;;;4.43;2.10;;;;;;;7.84;100.00;100458.84;4991979;28;20030;-91
2020/12/14 05:12:17;;;;;;;6.78;2.30;;;;;;;7.84;100.00;100459.69;4990140;28;20026;-91
2020/12/14 05:14:42;;;;;;;6.78;2.40;;;;;;;7.89;100.00;100461.88;5007059;28;20125;-91
2020/12/14 05:17:20;;;;;;;6.00;2.65;;;;;;;7.91;100.00;100462.56;4991186;28;20117;-90
2020/12/14 05:19:46;;;;;;;4.32;2.25;;;;;;;7.96;100.00;100466.41;4974459;28;20030;-90
2020/12/14 05:22:14;;;;;;;8.60;2.20;;;;;;;7.97;100.00;100460.06;4973883;28;20030;-91
2020/12/14 05:24:46;;;;;;;11.60;2.05;;;;;;;8.01;100.00;100471.28;4991628;28;20034;-90
2020/12/14 05:27:28;;;;;;;5.95;2.47;;;;;;;7.98;100.00;100471.59;4990938;28;20379;-90
2020/12/14 05:29:54;;;;;;;3.67;2.13;;;;;;;7.99;100.00;100466.13;4974612;28;20034;-91
2020/12/14 05:32:19;;;;;;;5.25;2.45;;;;;;;8.05;100.00;100472.66;4991396;28;20037;-91
2020/12/14 05:34:46;;;;;;;5.05;2.45;;;;;;;8.07;100.00;100464.47;5006454;28;20130;-90
2020/12/14 05:37:14;;;;;;;7.70;2.22;;;;;;;8.09;100.00;100467.84;4991207;28;20086;-90
2020/12/14 05:39:42;;;;;;;6.47;2.20;;;;;;;8.08;100.00;100468.81;4973891;28;20057;-90
2020/12/14 05:42:18;;;;;;;11.57;2.47;;;;;;;8.10;100.00;100465.00;5006641;28;20043;-91
2020/12/14 05:44:47;;;;;;;8.68;1.92;;;;;;;8.10;100.00;100467.66;4945926;28;20038;-90
2020/12/14 05:47:28;;;;;;;5.80;2.20;;;;;;;8.14;100.00;100481.56;4974176;28;20053;-90
2020/12/14 05:49:56;;;;;;;5.97;2.38;;;;;;;8.14;100.00;100468.19;4990072;28;20045;-90
2020/12/14 05:52:23;;;;;;;5.70;2.00;;;;;;;8.19;100.00;100482.75;4989904;28;20026;-90
2020/12/14 05:54:51;;;;;;;4.95;2.17;;;;;;;8.22;100.00;100473.56;5006593;28;20468;-91
2020/12/14 05:57:27;;;;;;;3.15;1.90;;;;;;;8.20;100.00;100484.41;4991072;28;20117;-91
2020/12/14 05:59:57;;;;;;;4.88;2.38;;;;;;;8.18;100.00;100478.41;5006491;28;20379;-91
2020/12/14 06:11:50;;;;;;;8.88;3.03;;;;;;;8.10;100.00;100475.69;4914013;29;20400;-91
2020/12/14 06:16:39;;;;;;;;;;;;;;;;;;;;;
2020/12/14 06:20:14;;;;;;;6.07;2.38;;;;;;;8.09;100.00;100458.00;4920191;28;20487;-91
2020/12/14 06:22:57;;;;;;;4.80;2.00;;;;;;;8.13;100.00;100464.66;4972827;28;20054;-88
2020/12/14 06:25:24;;;;;;;3.08;2.20;;;;;;;8.16;100.00;100461.69;4994149;28;20100;-87
2020/12/14 06:27:49;;;;;;;8.40;2.10;;;;;;;8.16;100.00;100464.34;4992832;28;20027;-92
2020/12/14 06:30:33;;;;;;;7.07;2.47;;;;;;;8.16;100.00;100436.81;5007114;28;20150;-91
2020/12/14 06:33:02;;;;;;;4.55;2.00;;;;;;;8.19;100.00;100431.97;4974690;28;20026;-92
2020/12/14 06:35:49;;;;;;;4.65;2.28;;;;;;;8.20;100.00;100420.28;4978447;28;20482;-90
2020/12/14 06:38:38;;;;;;;5.82;2.13;;;;;;;8.23;100.00;100448.50;5013504;28;20057;-92
2020/12/14 06:41:12;;;;;;;4.50;2.05;;;;;;;8.23;100.00;100460.06;4992981;28;20390;-90
2020/12/14 06:43:50;;;;;;;6.28;1.95;;;;;;;8.22;100.00;100461.03;5008829;28;20058;-92
2020/12/14 06:46:39;;;;;;;;;;;;;;;;;;;;;
2020/12/14 06:49:12;;;;;;;4.45;1.73;;;;;;;8.28;100.00;100446.19;5006502;28;20409;-92
2020/12/14 06:51:53;;;;;;;5.38;1.75;;;;;;;8.27;100.00;100434.66;4979749;28;20031;-91
2020/12/14 06:54:44;;;;;;;4.10;1.52;;;;;;;8.36;100.00;100461.44;4995957;28;20494;-90
2020/12/14 06:57:13;;;;;;;4.07;1.80;;;;;;;8.35;100.00;100449.91;4974153;28;20034;-92
2020/12/14 06:59:50;;;;;;;6.22;1.95;;;;;;;8.37;100.00;100463.97;4978014;28;20305;-91
2020/12/14 07:02:16;;;;;;;3.60;1.50;;;;;;;8.45;100.00;100465.84;4986144;28;20090;-91
2020/12/14 07:04:46;;;;;;;3.25;1.63;;;;;;;8.49;100.00;100481.41;4986541;28;20050;-90
2020/12/14 07:07:14;;;;;;;5.05;1.92;;;;;;;8.49;100.00;100475.22;4992815;28;20041;-91
2020/12/14 07:09:41;;;;;;;4.55;1.70;;;;;;;8.47;100.00;100488.72;4994015;28;20042;-91
2020/12/14 07:12:25;;;;;;;4.45;1.70;;;;;;;8.48;100.00;100481.53;4959424;28;20037;-91
2020/12/14 07:14:57;;;;;;;4.43;1.63;;;;;;;8.49;100.00;100473.38;4989357;28;20038;-92
2020/12/14 07:17:25;;;;;;;3.53;1.30;;;;;;;8.57;100.00;100492.13;5009017;28;20498;-91
2020/12/14 07:20:09;;;;;;;2.88;1.20;;;;;;;8.58;100.00;100498.28;4976560;28;20138;-91
2020/12/14 07:23:01;;;;;;;2.20;1.27;;;;;;;8.51;100.00;100487.41;4976965;28;20078;-91
2020/12/14 07:25:33;;;;;;;4.05;1.27;;;;;;;8.59;100.00;100502.66;4966734;28;20057;-92
2020/12/14 07:28:03;;;;;;;2.42;1.30;;;;;;;8.62;100.00;100498.81;4960403;28;20041;-91
2020/12/14 07:31:55;;;;;;;3.25;1.40;;;;;;;8.68;100.00;100516.88;4967653;28;20497;-91
2020/12/14 07:34:43;;;;;;;;;;;;;;;;;;;;;
2020/12/14 07:37:40;;;;;;;3.33;1.33;;;;;;;8.59;100.00;100518.72;4984553;28;20052;-91
2020/12/14 07:40:50;;;;;;;3.25;1.40;;;;;;;8.55;100.00;100512.84;5009045;28;20066;-92
2020/12/14 07:43:24;;;;;;;5.47;1.52;;;;;;;8.61;100.00;100519.38;4978625;28;20045;-90
2020/12/14 07:45:50;;;;;;;8.02;2.08;;;;;;;8.72;100.00;100534.28;5010660;28;20041;-91
2020/12/14 07:48:17;;;;;;;2.22;1.50;;;;;;;8.74;100.00;100551.03;4974771;28;20125;-90
2020/12/14 07:50:43;;;;;;;5.30;1.30;;;;;;;8.73;100.00;100546.66;4992778;28;20065;-91
2020/12/14 07:53:08;;;;;;;1.95;1.25;;;;;;;8.69;100.00;100545.31;5007815;28;20030;-90
2020/12/14 07:55:36;;;;;;;3.75;1.38;;;;;;;8.64;100.00;100536.94;4991173;28;20038;-91
2020/12/14 07:58:02;;;;;;;2.38;1.40;;;;;;;8.67;100.00;100544.63;4992337;28;20057;-91
2020/12/14 08:00:27;;;;;;;2.85;1.30;;;;;;;8.67;100.00;100553.50;4991580;28;20085;-90
2020/12/14 08:03:00;;;;;;;6.18;1.60;;;;;;;8.71;100.00;100549.50;4992284;28;20042;-90
2020/12/14 08:05:26;;;;;;;5.22;2.40;;;;;;;8.71;100.00;100548.66;4991772;28;20038;-91
2020/12/14 08:07:54;;;;;;;4.13;2.05;;;;;;;8.73;100.00;100557.34;4990693;28;20089;-91
2020/12/14 08:10:30;;;;;;;3.00;1.60;;;;;;;8.70;100.00;100550.50;4984986;28;20072;-90
2020/12/14 08:12:57;;;;;;;3.88;1.80;;;;;;;8.68;100.00;100555.16;5006362;28;20042;-89
2020/12/14 08:15:23;;;;;;;3.95;1.50;;;;;;;8.77;100.00;100570.25;4991583;28;20117;-89
2020/12/14 08:17:49;;;;;;;3.13;2.25;;;;;;;8.75;100.00;100566.06;4991100;28;20041;-86
2020/12/14 08:20:27;;;;;;;4.10;2.00;;;;;;;8.74;100.00;100573.25;4991810;28;20405;-90
2020/12/14 08:22:54;;;;;;;5.55;2.10;;;;;;;8.74;100.00;100570.59;5023285;28;20047;-89
2020/12/14 08:25:22;;;;;;;6.35;2.10;;;;;;;8.70;100.00;100568.38;4990610;28;20100;-90
2020/12/14 08:27:51;;;;;;;3.40;1.92;;;;;;;8.68;100.00;100573.88;4991371;28;20034;-90
2020/12/14 08:30:21;;;;;;;8.68;2.28;;;;;;;8.70;100.00;100569.22;4974844;28;20398;-90
2020/12/14 08:33:09;;;;;;;3.42;1.77;;;;;;;8.72;100.00;100577.06;4991205;28;20053;-90
2020/12/14 08:35:35;;;;;;;4.65;1.80;;;;;;;8.70;100.00;100568.38;4991091;28;20494;-89
2020/12/14 08:38:04;;;;;;;4.53;2.13;;;;;;;8.71;100.00;100568.22;4991333;28;20358;-89
2020/12/14 08:40:30;;;;;;;5.60;2.22;;;;;;;8.78;100.00;100574.59;4990519;28;20076;-90
2020/12/14 08:43:07;;;;;;;5.63;2.28;;;;;;;8.75;100.00;100569.56;4990374;28;20516;-90
2020/12/14 08:45:32;;;;;;;9.30;3.10;;;;;;;8.78;100.00;100571.91;4974035;28;20057;-89
2020/12/14 08:48:00;;;;;;;7.95;2.30;;;;;;;8.83;100.00;100579.47;4991091;28;20524;-90
2020/12/14 08:50:27;;;;;;;6.53;2.28;;;;;;;8.84;100.00;100580.31;4990604;28;20181;-90
2020/12/14 08:53:02;;;;;;;8.23;2.42;;;;;;;8.86;100.00;100581.81;4991543;28;20046;-90
2020/12/14 08:55:37;;;;;;;4.95;2.38;;;;;;;8.89;100.00;100575.31;4992013;28;20038;-89
2020/12/14 08:58:02;;;;;;;5.22;2.30;;;;;;;8.92;100.00;100591.88;4991090;28;20378;-90
2020/12/14 09:00:28;;;;;;;6.38;2.40;;;;;;;8.99;100.00;100584.06;5006275;28;20125;-89
2020/12/14 09:03:02;;;;;;;7.72;1.95;;;;;;;9.03;100.00;100586.22;4991393;28;20038;-88
2020/12/14 09:05:32;;;;;;;6.05;2.10;;;;;;;9.01;100.00;100582.88;4991336;28;20026;-89
2020/12/14 09:08:14;;;;;;;4.90;1.90;;;;;;;9.03;100.00;100583.53;4989441;28;20045;-90
2020/12/14 09:10:40;;;;;;;5.85;2.30;;;;;;;9.11;100.00;100580.06;4991418;28;20116;-89
2020/12/14 09:13:06;;;;;;;5.80;1.90;;;;;;;9.07;100.00;100582.22;4991068;28;20030;-90
2020/12/14 09:15:34;;;;;;;4.38;2.00;;;;;;;9.12;100.00;100580.91;4974152;28;20030;-90
2020/12/14 09:18:04;;;;;;;8.48;1.90;;;;;;;9.10;100.00;100593.63;4990987;28;20035;-89
2020/12/14 09:20:31;;;;;;;6.03;2.17;;;;;;;9.05;100.00;100597.63;4990171;28;20414;-89
2020/12/14 09:22:57;;;;;;;5.90;2.58;;;;;;;9.08;100.00;100605.28;4991074;28;20105;-89
2020/12/14 09:25:23;;;;;;;3.20;1.80;;;;;;;9.13;100.00;100604.81;4993338;28;20134;-89
2020/12/14 09:27:48;;;;;;;3.17;1.73;;;;;;;9.15;100.00;100612.69;4989379;28;20045;-89
2020/12/14 09:30:14;;;;;;;4.90;1.92;;;;;;;9.27;100.00;100624.78;4990413;28;20042;-90
2020/12/14 09:32:39;;;;;;;5.00;1.90;;;;;;;9.40;100.00;100627.00;4991048;28;20058;-90
2020/12/14 09:35:05;;;;;;;2.95;1.70;;;;;;;9.43;100.00;100630.16;4979105;28;20117;-89
2020/12/14 09:37:31;;;;;;;3.88;1.90;;;;;;;9.45;100.00;100628.16;4973567;28;20065;-91
2020/12/14 09:39:57;;;;;;;5.30;1.83;;;;;;;9.55;100.00;100641.41;4973511;28;20034;-90
2020/12/14 09:42:23;;;;;;;3.83;1.50;;;;;;;9.56;100.00;100641.25;4990118;28;20097;-89
2020/12/14 09:44:49;;;;;;;4.55;1.85;;;;;;;9.64;100.00;100642.25;4995094;28;20068;-90
2020/12/14 09:47:14;;;;;;;2.08;1.52;;;;;;;9.67;100.00;100649.97;4994033;28;20070;-90
2020/12/14 09:49:40;;;;;;;4.85;2.03;;;;;;;9.63;100.00;100645.94;4994765;28;20037;-89
2020/12/14 09:52:06;;;;;;;4.38;1.92;;;;;;;9.59;100.00;100640.91;4993177;28;20516;-89
2020/12/14 09:54:31;;;;;;;2.67;1.60;;;;;;;9.66;100.00;100640.25;5010108;28;20042;-90
2020/12/14 09:56:57;;;;;;;3.70;1.70;;;;;;;9.72;100.00;100651.13;4993612;28;20497;-90
2020/12/14 09:59:22;;;;;;;3.20;1.70;;;;;;;9.73;100.00;100651.97;4994235;28;20061;-90
2020/12/14 10:01:48;;;;;;;4.15;1.40;;;;;;;9.79;100.00;100649.50;4993133;28;20038;-91
2020/12/14 10:04:14;;;;;;;3.20;1.88;;;;;;;9.81;100.00;100652.81;4994618;28;20026;-90
2020/12/14 10:06:39;;;;;;;8.05;2.20;;;;;;;9.76;100.00;100643.63;4976293;28;20095;-90
2020/12/14 10:09:05;;;;;;;6.05;2.10;;;;;;;9.81;100.00;100652.00;5008052;28;20504;-90
2020/12/14 10:11:33;;;;;;;3.58;1.75;;;;;;;9.87;100.00;100659.34;4987151;28;20037;-90
2020/12/14 10:13:59;;;;;;;5.40;2.03;;;;;;;9.93;100.00;100652.50;4994702;28;20486;-88
2020/12/14 10:16:25;;;;;;;5.03;1.77;;;;;;;9.80;100.00;100647.66;4993656;28;20030;-90
2020/12/14 10:18:51;;;;;;;7.32;1.70;;;;;;;9.91;100.00;100644.63;4993000;28;20034;-89
2020/12/14 10:21:17;;;;;;;5.63;1.92;;;;;;;10.04;100.00;100644.97;4994193;28;20118;-90
2020/12/14 10:23:42;;;;;;;8.20;1.85;;;;;;;10.04;100.00;100638.75;4973710;28;20506;-90
2020/12/14 10:26:10;;;;;;;3.13;1.63;;;;;;;10.06;100.00;100636.75;4987218;28;20031;-90
2020/12/14 10:28:36;;;;;;;4.65;1.98;;;;;;;10.04;100.00;100642.31;4993733;28;20046;-90
2020/12/14 10:31:04;;;;;;;6.57;1.88;;;;;;;10.06;100.00;100642.13;4976684;28;20067;-90
2020/12/14 10:33:31;;;;;;;5.75;2.20;;;;;;;10.06;100.00;100640.28;4992582;28;20034;-89
2020/12/14 10:35:57;;;;;;;4.97;1.83;;;;;;;10.03;100.00;100639.75;4992352;28;20077;-90
2020/12/14 10:38:22;;;;;;;7.03;1.90;;;;;;;10.10;100.00;100630.91;4992018;28;20484;-89
2020/12/14 10:40:51;;;;;;;3.95;1.77;;;;;;;10.07;100.00;100641.09;4976154;28;20097;-90
2020/12/14 10:43:16;;;;;;;9.07;1.67;;;;;;;10.17;100.00;100635.59;4992552;28;20038;-89
2020/12/14 10:45:43;;;;;;;7.57;2.20;;;;;;;10.16;100.00;100641.94;4992429;28;20046;-90
2020/12/14 10:48:08;;;;;;;6.50;1.80;;;;;;;10.28;100.00;100641.44;4976281;28;20038;-90
2020/12/14 10:50:34;;;;;;;4.22;2.20;;;;;;;10.30;100.00;100641.31;4992068;28;20072;-91
2020/12/14 10:52:59;;;;;;;4.80;2.00;;;;;;;10.48;100.00;100646.47;4976237;28;20054;-90
2020/12/14 10:55:25;;;;;;;5.50;2.10;;;;;;;10.52;100.00;100648.63;4958732;28;20049;-88
2020/12/14 10:57:51;;;;;;;4.45;1.85;;;;;;;10.57;100.00;100654.31;4991812;28;20022;-89
2020/12/14 11:00:19;;;;;;;5.43;2.03;;;;;;;10.68;100.00;100649.59;4993457;28;20038;-89
2020/12/14 11:02:45;;;;;;;5.32;2.28;;;;;;;10.57;100.00;100656.16;4993097;28;20038;-89
2020/12/14 11:05:11;;;;;;;7.25;2.53;;;;;;;10.60;100.00;100653.16;4991717;28;20037;-89
2020/12/14 11:07:40;;;;;;;5.38;1.90;;;;;;;10.62;100.00;100649.28;4992717;28;20046;-89
2020/12/14 11:10:07;;;;;;;7.78;2.53;;;;;;;10.61;100.00;100660.19;4985979;28;20118;-89
2020/12/14 11:12:32;;;;;;;6.47;2.10;;;;;;;10.69;100.00;100657.47;4993233;28;20030;-89
2020/12/14 11:14:58;;;;;;;6.68;2.00;;;;;;;10.71;100.00;100662.69;4992635;28;20041;-89
2020/12/14 11:17:24;;;;;;;7.80;2.85;;;;;;;10.85;100.00;100664.66;4991269;28;20553;-89
2020/12/14 11:19:49;;;;;;;5.85;2.60;;;;;;;10.81;100.00;100652.59;4991787;28;20390;-89
2020/12/14 11:22:20;;;;;;;16.77;3.40;;;;;;;10.78;100.00;100659.13;4991529;28;20034;-89
2020/12/14 11:24:45;;;;;;;13.35;3.65;;;;;;;10.82;100.00;100655.09;4975715;28;20038;-89
2020/12/14 11:27:11;;;;;;;6.60;2.33;;;;;;;10.97;100.00;100668.63;4991443;28;20044;-89
2020/12/14 11:29:37;;;;;;;10.55;2.58;;;;;;;10.99;100.00;100666.59;4992753;28;20030;-87
2020/12/14 11:32:02;;;;;;;8.88;2.38;;;;;;;11.00;100.00;100657.56;4992866;28;20621;-89
2020/12/14 11:34:28;;;;;;;6.75;2.75;;;;;;;10.94;100.00;100652.88;4991452;28;20560;-89
2020/12/14 11:36:53;;;;;;;8.68;3.05;;;;;;;10.93;100.00;100661.94;4990177;28;20034;-89
2020/12/14 11:39:23;;;;;;;8.38;2.60;;;;;;;10.90;100.00;100662.31;4959120;28;20497;-89
2020/12/14 11:41:48;;;;;;;7.00;2.70;;;;;;;10.92;100.00;100651.38;4992493;28;20034;-89
2020/12/14 11:44:15;;;;;;;7.53;2.72;;;;;;;10.97;100.00;100646.34;4992200;28;20117;-89
2020/12/14 11:46:42;;;;;;;12.05;3.08;;;;;;;10.92;100.00;100654.06;4991950;28;20124;-89